Time;durP1;ratioP1;P1;durP2;ratioP2;P2;SDS_P1;SDS_P2;PMS_P1;PMS_P2;Temp;Humidity;BMP_temperature;BMP_pressure;BME280_temperature;BME280_humidity;BME280_pressure;Samples;Min_cycle;Max_cycle;Signal;HPM_P1;HPM_P2
2021/04/10 00:00:07;;;;;;;0.10;0.10;;;;;;;3.67;90.27;101465.69;10416119;28;20496;-72
2021/04/10 00:10:11;;;;;;;0.17;0.17;;;;;;;3.61;89.76;101465.13;10343228;28;20046;-72
2021/04/10 00:15:15;;;;;;;0.10;0.10;;;;;;;3.61;89.93;101456.38;10334243;28;20022;-73
2021/04/10 00:20:18;;;;;;;0.08;0.08;;;;;;;3.60;89.65;101459.94;10346816;28;20026;-72
2021/04/10 00:25:19;;;;;;;0.03;0.03;;;;;;;3.59;89.58;101460.91;10333854;28;20058;-72
2021/04/10 00:30:20;;;;;;;0.15;0.15;;;;;;;3.56;89.27;101472.47;10333858;28;20053;-72
2021/04/10 00:35:20;;;;;;;0.20;0.20;;;;;;;3.53;89.45;101469.19;10336714;28;20487;-72
2021/04/10 00:40:21;;;;;;;0.10;0.10;;;;;;;3.55;89.07;101459.38;10372493;28;20469;-72
2021/04/10 00:45:21;;;;;;;0.10;0.10;;;;;;;3.54;89.01;101468.25;10374046;28;20021;-72
2021/04/10 00:50:21;;;;;;;0.10;0.10;;;;;;;3.53;88.54;101467.41;10373025;28;20065;-72
2021/04/10 00:55:22;;;;;;;0.10;0.10;;;;;;;3.50;88.71;101464.97;10373676;28;20105;-72
2021/04/10 01:00:23;;;;;;;0.10;0.10;;;;;;;3.47;88.44;101449.38;10372797;28;20022;-72
2021/04/10 01:05:23;;;;;;;0.13;0.13;;;;;;;3.43;88.56;101449.66;10369067;28;20536;-72
2021/04/10 01:10:24;;;;;;;0.00;0.00;;;;;;;3.41;88.89;101455.03;10356053;28;20226;-72
2021/04/10 01:15:44;;;;;;;0.10;0.10;;;;;;;3.39;89.18;101449.84;10413555;28;20022;-73
2021/04/10 01:21:02;;;;;;;0.10;0.10;;;;;;;3.36;89.31;101452.66;10411630;28;20033;-73
2021/04/10 01:26:13;;;;;;;0.20;0.20;;;;;;;3.35;88.53;101447.50;10412918;28;20044;-73
2021/04/10 01:31:16;;;;;;;0.17;0.17;;;;;;;3.32;88.30;101458.25;10412570;28;20026;-73
2021/04/10 01:36:22;;;;;;;0.00;0.00;;;;;;;3.33;87.64;101463.41;10393057;28;20366;-73
2021/04/10 01:41:23;;;;;;;0.20;0.20;;;;;;;3.34;88.25;101461.59;10371342;28;20061;-72
2021/04/10 01:46:25;;;;;;;0.10;0.10;;;;;;;3.39;88.79;101470.06;10371152;28;20030;-73
2021/04/10 01:51:26;;;;;;;0.10;0.10;;;;;;;3.40;88.79;101464.72;10370463;28;20053;-73
2021/04/10 01:56:29;;;;;;;0.20;0.20;;;;;;;3.42;88.29;101472.50;10371041;28;20030;-73
2021/04/10 02:01:30;;;;;;;0.10;0.10;;;;;;;3.43;88.21;101479.44;10370456;28;20084;-72
2021/04/10 02:06:32;;;;;;;0.30;0.30;;;;;;;3.42;87.86;101477.78;10366850;28;20022;-72
2021/04/10 02:11:33;;;;;;;0.10;0.10;;;;;;;3.40;88.24;101477.88;10370084;28;20036;-73
2021/04/10 02:16:35;;;;;;;0.13;0.13;;;;;;;3.40;88.26;101488.41;10370345;28;20080;-72
2021/04/10 02:21:38;;;;;;;0.20;0.20;;;;;;;3.39;88.59;101488.50;10369948;28;20101;-73
2021/04/10 02:26:39;;;;;;;0.10;0.10;;;;;;;3.39;89.16;101481.44;10370006;28;20091;-73
2021/04/10 02:31:44;;;;;;;0.08;0.08;;;;;;;3.40;88.46;101484.91;10369899;28;20105;-72
2021/04/10 02:36:49;;;;;;;0.00;0.00;;;;;;;3.37;87.42;101490.38;10365773;28;20537;-73
2021/04/10 02:41:53;;;;;;;0.10;0.10;;;;;;;3.34;85.55;101490.56;10369378;28;20093;-73
2021/04/10 02:47:00;;;;;;;0.10;0.10;;;;;;;3.31;86.19;101488.13;10368936;28;20105;-72
2021/04/10 02:52:01;;;;;;;0.00;0.00;;;;;;;3.28;85.31;101493.59;10369126;28;20495;-73
2021/04/10 02:57:13;;;;;;;0.10;0.10;;;;;;;3.26;84.68;101498.97;10369191;28;20099;-72
2021/04/10 03:02:15;;;;;;;0.10;0.10;;;;;;;3.25;84.35;101501.69;10368748;28;20071;-72
2021/04/10 03:07:16;;;;;;;0.00;0.00;;;;;;;3.24;83.96;101510.53;10364454;28;20064;-72
2021/04/10 03:12:18;;;;;;;0.13;0.13;;;;;;;3.24;84.17;101518.44;10368521;28;20113;-73
2021/04/10 03:17:24;;;;;;;0.20;0.20;;;;;;;3.20;84.11;101515.16;10368474;28;20026;-72
2021/04/10 03:22:24;;;;;;;0.10;0.10;;;;;;;3.16;84.48;101511.84;10368297;28;20127;-72
2021/04/10 03:27:25;;;;;;;0.10;0.10;;;;;;;3.11;84.67;101518.31;10368360;28;20080;-72
2021/04/10 03:32:31;;;;;;;0.10;0.10;;;;;;;3.08;84.26;101529.88;10367784;28;20728;-72
2021/04/10 03:37:31;;;;;;;0.10;0.10;;;;;;;3.04;84.65;101523.13;10349520;28;20152;-72
2021/04/10 03:42:43;;;;;;;0.10;0.10;;;;;;;2.99;85.32;101525.19;10327436;28;20140;-72
2021/04/10 03:47:43;;;;;;;0.08;0.08;;;;;;;2.92;85.37;101529.13;10358236;28;20033;-72
2021/04/10 03:52:44;;;;;;;0.10;0.10;;;;;;;2.90;85.57;101533.63;10368071;28;20021;-72
2021/04/10 03:57:44;;;;;;;0.10;0.10;;;;;;;2.85;86.16;101522.53;10359913;28;20022;-72
2021/04/10 04:02:44;;;;;;;0.10;0.10;;;;;;;2.81;86.49;101528.94;10326053;28;20081;-71
2021/04/10 04:07:45;;;;;;;0.10;0.10;;;;;;;2.76;86.84;101536.25;10326918;28;20472;-73
2021/04/10 04:12:45;;;;;;;0.10;0.10;;;;;;;2.69;86.55;101548.94;10327387;28;20034;-73
2021/04/10 04:17:46;;;;;;;0.08;0.08;;;;;;;2.64;86.38;101543.91;10362343;28;20038;-73
2021/04/10 04:22:46;;;;;;;0.00;0.00;;;;;;;2.63;86.53;101558.03;10374850;28;20121;-73
2021/04/10 04:27:46;;;;;;;0.08;0.08;;;;;;;2.59;86.69;101560.91;10374165;28;20255;-72
2021/04/10 04:32:46;;;;;;;0.20;0.20;;;;;;;2.59;86.49;101574.94;10374574;28;20060;-73
2021/04/10 04:37:47;;;;;;;0.10;0.10;;;;;;;2.58;86.17;101573.22;10373824;28;20025;-73
2021/04/10 04:42:47;;;;;;;0.10;0.10;;;;;;;2.56;86.00;101580.38;10372452;28;20269;-72
2021/04/10 04:47:47;;;;;;;0.20;0.20;;;;;;;2.55;85.36;101581.28;10372539;28;20124;-72
2021/04/10 04:52:48;;;;;;;0.10;0.10;;;;;;;2.54;84.52;101586.66;10373400;28;20041;-73
2021/04/10 04:57:48;;;;;;;0.10;0.10;;;;;;;2.54;84.53;101598.00;10373141;28;20022;-73
2021/04/10 05:02:49;;;;;;;0.10;0.10;;;;;;;2.54;84.35;101599.81;10372915;28;20022;-72
2021/04/10 05:07:50;;;;;;;0.20;0.20;;;;;;;2.53;83.75;101601.59;10372654;28;20034;-72
2021/04/10 05:12:52;;;;;;;0.10;0.10;;;;;;;2.56;83.55;101604.03;10372579;28;20041;-72
2021/04/10 05:17:52;;;;;;;0.10;0.10;;;;;;;2.56;83.54;101603.16;10371245;28;20105;-72
2021/04/10 05:22:54;;;;;;;0.10;0.10;;;;;;;2.59;83.66;101611.75;10372355;28;20113;-72
2021/04/10 05:27:54;;;;;;;0.10;0.10;;;;;;;2.63;83.10;101617.69;10371427;28;20285;-72
2021/04/10 05:32:54;;;;;;;0.10;0.10;;;;;;;2.66;82.36;101625.38;10370799;28;20030;-72
2021/04/10 05:37:54;;;;;;;0.10;0.10;;;;;;;2.70;83.83;101629.53;10371605;28;20532;-72
2021/04/10 05:42:55;;;;;;;0.10;0.10;;;;;;;2.71;83.41;101645.25;10371468;28;20388;-71
2021/04/10 05:47:55;;;;;;;0.20;0.20;;;;;;;2.78;83.85;101650.13;10370220;28;20022;-71
2021/04/10 05:52:55;;;;;;;0.20;0.20;;;;;;;2.87;83.06;101653.06;10369409;28;20350;-71
2021/04/10 05:57:56;;;;;;;0.27;0.27;;;;;;;2.98;82.76;101665.63;10370717;28;20264;-72
2021/04/10 06:02:56;;;;;;;0.10;0.10;;;;;;;3.12;83.61;101668.28;10367669;28;20272;-72
2021/04/10 06:07:57;;;;;;;0.10;0.10;;;;;;;3.21;84.63;101674.81;10385999;23;20029;-70
2021/04/10 06:12:57;;;;;;;0.10;0.10;;;;;;;3.33;84.55;101694.28;10369375;28;20364;-70
2021/04/10 06:17:57;;;;;;;0.00;0.00;;;;;;;3.44;83.74;101691.88;10368774;28;20014;-70
2021/04/10 06:22:58;;;;;;;0.10;0.10;;;;;;;3.65;82.82;101686.25;10386795;28;20026;-70
2021/04/10 06:28:05;;;;;;;0.05;0.05;;;;;;;3.93;80.17;101699.44;10374703;28;20125;-70
2021/04/10 06:33:05;;;;;;;0.10;0.10;;;;;;;4.19;78.79;101702.19;10374704;28;20168;-70
2021/04/10 06:38:05;;;;;;;0.00;0.00;;;;;;;4.36;78.07;101707.25;10387877;28;20068;-70
2021/04/10 06:43:06;;;;;;;0.10;0.10;;;;;;;4.46;74.76;101710.19;10353768;28;20108;-70
2021/04/10 06:48:13;;;;;;;0.00;0.00;;;;;;;4.62;75.95;101710.03;10363866;28;20285;-70
2021/04/10 06:53:15;;;;;;;0.00;0.00;;;;;;;4.76;74.13;101707.34;10369117;28;20041;-70
2021/04/10 06:58:28;;;;;;;0.00;0.00;;;;;;;4.85;73.05;101730.50;10381174;28;20041;-70
2021/04/10 07:03:29;;;;;;;0.10;0.10;;;;;;;4.85;70.21;101724.38;10408075;28;20482;-70
2021/04/10 07:08:29;;;;;;;0.10;0.10;;;;;;;4.90;68.87;101735.50;10383254;28;20029;-70
2021/04/10 07:13:31;;;;;;;0.08;0.08;;;;;;;4.98;71.02;101738.47;10365307;28;20033;-70
2021/04/10 07:18:32;;;;;;;0.10;0.10;;;;;;;5.18;68.65;101740.66;10363641;28;20113;-70
2021/04/10 07:23:45;;;;;;;0.00;0.00;;;;;;;5.34;68.01;101740.47;10393818;28;20111;-70
2021/04/10 07:28:46;;;;;;;0.00;0.00;;;;;;;5.44;64.17;101748.63;10408033;28;20108;-70
2021/04/10 07:34:00;;;;;;;0.00;0.00;;;;;;;5.85;65.19;101751.09;10409173;28;20029;-70
2021/04/10 07:39:00;;;;;;;0.00;0.00;;;;;;;6.16;62.24;101751.63;10408409;28;20464;-70
2021/04/10 07:44:00;;;;;;;0.00;0.00;;;;;;;6.09;63.83;101753.84;10407982;28;20021;-71
2021/04/10 07:49:09;;;;;;;0.00;0.00;;;;;;;5.99;62.99;101762.53;10396535;28;20021;-70
2021/04/10 07:54:21;;;;;;;0.10;0.10;;;;;;;6.10;61.54;101759.97;10374250;28;20605;-70
2021/04/10 07:59:22;;;;;;;0.00;0.00;;;;;;;6.34;61.09;101768.88;10375138;28;20468;-70
2021/04/10 08:04:22;;;;;;;0.00;0.00;;;;;;;6.64;59.26;101772.91;10375639;28;20265;-70
2021/04/10 08:09:27;;;;;;;0.00;0.00;;;;;;;7.16;59.00;101769.09;10376677;28;20036;-70
2021/04/10 08:14:45;;;;;;;0.00;0.00;;;;;;;7.48;58.51;101773.81;10374436;28;20041;-70
2021/04/10 08:19:45;;;;;;;0.00;0.00;;;;;;;7.82;55.01;101776.50;10371500;28;20026;-70
2021/04/10 08:24:48;;;;;;;0.00;0.00;;;;;;;7.89;55.06;101780.41;10373897;28;20477;-70
2021/04/10 08:29:51;;;;;;;0.00;0.00;;;;;;;7.95;53.20;101769.31;10415294;28;20028;-70
2021/04/10 08:34:51;;;;;;;0.05;0.05;;;;;;;7.84;52.79;101787.88;10363239;28;20037;-70
2021/04/10 08:39:54;;;;;;;0.00;0.00;;;;;;;7.76;56.52;101787.59;10390564;28;20018;-70
2021/04/10 08:44:56;;;;;;;0.00;0.00;;;;;;;7.53;54.11;101800.78;10400740;28;20507;-70
2021/04/10 08:49:56;;;;;;;0.00;0.00;;;;;;;7.46;55.09;101799.56;10391426;28;20014;-70
2021/04/10 08:55:02;;;;;;;0.00;0.00;;;;;;;7.80;54.56;101807.63;10374208;28;20108;-70
2021/04/10 09:00:17;;;;;;;0.00;0.00;;;;;;;7.81;52.22;101809.31;10385844;28;20026;-70
2021/04/10 09:05:21;;;;;;;0.00;0.00;;;;;;;7.88;52.50;101810.53;10372977;28;20026;-70
2021/04/10 09:10:26;;;;;;;0.00;0.00;;;;;;;8.09;55.62;101821.31;10372812;28;20034;-70
2021/04/10 09:15:27;;;;;;;0.00;0.00;;;;;;;8.08;54.47;101816.94;10373178;28;20511;-70
2021/04/10 09:20:45;;;;;;;0.00;0.00;;;;;;;8.07;51.79;101832.03;10351552;28;20033;-70
2021/04/10 09:25:46;;;;;;;0.00;0.00;;;;;;;8.29;51.98;101838.31;10332143;28;20023;-70
2021/04/10 09:30:47;;;;;;;0.00;0.00;;;;;;;8.63;49.97;101846.34;10332079;28;20034;-70
2021/04/10 09:35:47;;;;;;;0.00;0.00;;;;;;;9.15;51.31;101852.78;10332046;28;20540;-69
2021/04/10 09:40:49;;;;;;;0.00;0.00;;;;;;;9.15;50.58;101847.47;10330552;28;20026;-70
2021/04/10 09:45:51;;;;;;;0.00;0.00;;;;;;;8.90;51.52;101849.47;10331553;28;20030;-70
2021/04/10 09:50:52;;;;;;;0.00;0.00;;;;;;;8.82;51.68;101847.41;10338770;28;20030;-70
2021/04/10 09:55:58;;;;;;;0.00;0.00;;;;;;;8.79;48.59;101855.63;10395219;28;20201;-70
2021/04/10 10:01:04;;;;;;;0.00;0.00;;;;;;;8.75;48.34;101864.78;10412285;28;20026;-69
2021/04/10 10:06:30;;;;;;;0.00;0.00;;;;;;;8.64;49.76;101861.28;10411705;28;20029;-70
2021/04/10 10:11:31;;;;;;;0.03;0.03;;;;;;;8.82;49.93;101858.03;10411621;28;20036;-69
2021/04/10 10:16:31;;;;;;;0.00;0.00;;;;;;;8.80;47.55;101856.47;10410889;28;20018;-69
2021/04/10 10:21:32;;;;;;;0.00;0.00;;;;;;;8.94;47.32;101863.34;10386907;28;20517;-70
2021/04/10 10:26:41;;;;;;;0.00;0.00;;;;;;;8.97;48.59;101855.97;10382030;28;20022;-69
2021/04/10 10:31:49;;;;;;;0.00;0.00;;;;;;;9.34;45.55;101847.66;10370016;28;20488;-69
2021/04/10 10:36:53;;;;;;;0.00;0.00;;;;;;;9.33;46.05;101840.63;10371083;28;20372;-70
2021/04/10 10:41:55;;;;;;;0.00;0.00;;;;;;;9.51;45.46;101841.78;10386391;28;20408;-69
2021/04/10 10:47:06;;;;;;;0.00;0.00;;;;;;;9.44;48.41;101843.25;10407573;28;20022;-69
2021/04/10 10:52:14;;;;;;;0.10;0.10;;;;;;;8.96;46.25;101843.66;10409889;28;20029;-70
2021/04/10 10:57:17;;;;;;;0.03;0.03;;;;;;;8.83;43.66;101832.31;10410073;28;20021;-70
2021/04/10 11:02:20;;;;;;;0.00;0.00;;;;;;;9.22;48.27;101827.38;10409256;28;20025;-70
2021/04/10 11:07:25;;;;;;;0.00;0.00;;;;;;;9.66;46.55;101834.34;10394554;28;20037;-70
2021/04/10 11:12:26;;;;;;;0.00;0.00;;;;;;;9.51;45.94;101833.81;10368920;28;20053;-70
2021/04/10 11:17:31;;;;;;;0.00;0.00;;;;;;;9.47;46.62;101832.38;10368945;28;20038;-70
2021/04/10 11:22:32;;;;;;;0.00;0.00;;;;;;;9.61;42.86;101841.03;10367707;28;20057;-70
2021/04/10 11:27:35;;;;;;;0.00;0.00;;;;;;;9.62;43.66;101832.06;10373787;28;20056;-71
2021/04/10 11:32:48;;;;;;;0.00;0.00;;;;;;;9.85;46.10;101827.47;10376908;28;20041;-71
2021/04/10 11:37:54;;;;;;;0.00;0.00;;;;;;;9.64;43.71;101828.31;10376953;28;20021;-71
2021/04/10 11:43:02;;;;;;;0.00;0.00;;;;;;;9.30;46.26;101828.44;10375696;28;20041;-71
2021/04/10 11:48:08;;;;;;;0.05;0.05;;;;;;;8.99;48.51;101818.66;10375257;28;20018;-71
2021/04/10 11:53:18;;;;;;;0.00;0.00;;;;;;;8.87;47.97;101814.31;10376729;28;20075;-71
2021/04/10 11:58:36;;;;;;;0.00;0.00;;;;;;;8.94;46.03;101821.66;10375101;28;20029;-71
2021/04/10 12:03:47;;;;;;;0.00;0.00;;;;;;;9.15;44.17;101823.53;10376320;28;20037;-71
2021/04/10 12:08:48;;;;;;;0.05;0.05;;;;;;;9.49;47.31;101819.78;10375717;28;20040;-71
2021/04/10 12:13:49;;;;;;;0.00;0.00;;;;;;;9.62;45.01;101818.75;10376088;28;20053;-71
2021/04/10 12:18:49;;;;;;;0.00;0.00;;;;;;;9.68;43.81;101821.75;10375255;28;20029;-71
2021/04/10 12:23:49;;;;;;;0.00;0.00;;;;;;;9.63;45.70;101823.97;10375460;28;20033;-72
2021/04/10 12:28:51;;;;;;;0.00;0.00;;;;;;;9.41;44.11;101811.59;10375033;28;20084;-72
2021/04/10 12:33:51;;;;;;;0.00;0.00;;;;;;;9.56;43.30;101795.34;10374864;28;20443;-71
2021/04/10 12:38:51;;;;;;;0.00;0.00;;;;;;;9.65;44.76;101794.56;10373960;28;20026;-72
2021/04/10 12:43:52;;;;;;;0.00;0.00;;;;;;;9.68;42.58;101787.16;10404310;28;20029;-72
2021/04/10 12:48:52;;;;;;;0.03;0.03;;;;;;;9.87;47.16;101783.78;10401403;28;20292;-72
2021/04/10 12:53:53;;;;;;;0.00;0.00;;;;;;;10.00;46.89;101785.38;10390231;28;20026;-72
2021/04/10 12:58:53;;;;;;;0.00;0.00;;;;;;;9.96;44.54;101780.34;10373646;28;20026;-72
2021/04/10 13:03:53;;;;;;;0.00;0.00;;;;;;;9.65;41.87;101774.13;10383764;28;20810;-72
2021/04/10 13:08:53;;;;;;;0.00;0.00;;;;;;;9.62;46.19;101785.03;10374520;28;20053;-72
2021/04/10 13:13:54;;;;;;;0.00;0.00;;;;;;;9.55;44.83;101769.72;10378223;28;20263;-72
2021/04/10 13:18:54;;;;;;;0.00;0.00;;;;;;;9.72;44.64;101764.66;10388663;28;20119;-72
2021/04/10 13:23:55;;;;;;;0.00;0.00;;;;;;;9.60;42.69;101763.03;10389782;28;20091;-72
2021/04/10 13:28:55;;;;;;;0.00;0.00;;;;;;;9.41;41.91;101755.75;10386796;28;20531;-73
2021/04/10 13:33:56;;;;;;;0.10;0.10;;;;;;;9.49;42.29;101744.50;10378833;28;20518;-72
2021/04/10 13:38:56;;;;;;;0.00;0.00;;;;;;;9.30;46.45;101747.84;10371740;28;20029;-73
2021/04/10 13:43:56;;;;;;;0.00;0.00;;;;;;;9.44;49.39;101744.03;10395616;28;20017;-72
2021/04/10 13:48:57;;;;;;;0.00;0.00;;;;;;;9.72;45.62;101734.56;10363959;28;20030;-72
2021/04/10 13:53:59;;;;;;;0.00;0.00;;;;;;;9.47;45.42;101733.97;10341300;28;20101;-72
2021/04/10 13:59:00;;;;;;;0.00;0.00;;;;;;;9.19;45.62;101735.47;10360205;28;20022;-72
2021/04/10 14:04:01;;;;;;;0.00;0.00;;;;;;;9.20;42.68;101725.66;10343477;28;20261;-72
2021/04/10 14:09:03;;;;;;;0.00;0.00;;;;;;;9.36;44.99;101726.03;10366805;28;20459;-72
2021/04/10 14:14:03;;;;;;;0.00;0.00;;;;;;;9.28;44.88;101710.75;10363426;28;20022;-73
2021/04/10 14:19:04;;;;;;;0.10;0.10;;;;;;;9.39;45.52;101712.50;10373634;28;20018;-73
2021/04/10 14:24:04;;;;;;;0.00;0.00;;;;;;;9.27;46.63;101706.41;10363151;28;20026;-73
2021/04/10 14:34:07;;;;;;;0.10;0.10;;;;;;;9.38;45.70;101705.50;10401453;28;20053;-73
2021/04/10 14:39:08;;;;;;;0.00;0.00;;;;;;;9.55;45.14;101701.41;10408214;28;20018;-73
2021/04/10 14:44:08;;;;;;;0.00;0.00;;;;;;;9.64;45.72;101697.13;10404899;28;20033;-74
2021/04/10 14:49:08;;;;;;;0.00;0.00;;;;;;;9.76;44.46;101696.06;10407393;28;20026;-74
2021/04/10 14:54:09;;;;;;;0.00;0.00;;;;;;;9.71;45.24;101690.28;10407642;28;20036;-72
2021/04/10 14:59:09;;;;;;;0.00;0.00;;;;;;;9.72;47.04;101679.53;10405804;28;20049;-74
2021/04/10 15:04:10;;;;;;;0.00;0.00;;;;;;;9.72;46.48;101679.53;10404660;28;20535;-74
2021/04/10 15:09:10;;;;;;;0.00;0.00;;;;;;;9.66;44.40;101669.41;10401144;28;20454;-74
2021/04/10 15:14:11;;;;;;;0.00;0.00;;;;;;;9.69;44.87;101681.63;10390317;28;20026;-74
2021/04/10 15:19:11;;;;;;;0.10;0.10;;;;;;;9.57;44.44;101678.19;10393310;28;20260;-73
2021/04/10 15:24:12;;;;;;;0.00;0.00;;;;;;;9.47;42.55;101671.97;10388203;28;20056;-74
2021/04/10 15:29:14;;;;;;;0.00;0.00;;;;;;;9.46;45.58;101665.81;10403436;28;20025;-73
2021/04/10 15:34:28;;;;;;;0.00;0.00;;;;;;;9.51;46.12;101665.41;10382256;28;20022;-74
2021/04/10 15:39:28;;;;;;;0.00;0.00;;;;;;;9.49;45.79;101656.72;10364822;28;20485;-74
2021/04/10 15:44:29;;;;;;;0.05;0.05;;;;;;;9.43;45.07;101655.44;10368354;28;20036;-74
2021/04/10 15:49:29;;;;;;;0.10;0.10;;;;;;;9.33;45.69;101649.19;10368243;28;20030;-74
2021/04/10 15:54:30;;;;;;;0.00;0.00;;;;;;;9.13;45.60;101642.91;10368750;28;20076;-74
2021/04/10 15:59:30;;;;;;;0.00;0.00;;;;;;;8.98;45.25;101646.88;10381330;28;20029;-74
2021/04/10 16:04:31;;;;;;;0.00;0.00;;;;;;;8.93;45.31;101649.94;10409317;28;20026;-74
2021/04/10 16:09:32;;;;;;;0.00;0.00;;;;;;;8.94;44.76;101645.47;10408365;28;20040;-74
2021/04/10 16:14:32;;;;;;;0.00;0.00;;;;;;;8.88;44.52;101636.19;10414851;28;20021;-74
2021/04/10 16:19:33;;;;;;;0.00;0.00;;;;;;;8.82;47.06;101634.03;10416508;28;20021;-74
2021/04/10 16:24:33;;;;;;;0.00;0.00;;;;;;;8.77;46.52;101626.44;10416356;28;20112;-74
2021/04/10 16:29:34;;;;;;;0.00;0.00;;;;;;;8.66;46.97;101623.84;10414970;28;20104;-74
2021/04/10 16:34:34;;;;;;;0.00;0.00;;;;;;;8.54;46.94;101623.03;10415714;28;20465;-74
2021/04/10 16:39:34;;;;;;;0.00;0.00;;;;;;;8.42;45.75;101608.13;10414216;28;20025;-74
2021/04/10 16:44:35;;;;;;;0.00;0.00;;;;;;;8.30;50.52;101609.09;10415091;28;20032;-74
2021/04/10 16:49:36;;;;;;;0.00;0.00;;;;;;;8.16;44.40;101605.75;10413198;28;20359;-74
2021/04/10 16:54:37;;;;;;;0.00;0.00;;;;;;;8.14;47.11;101607.69;10414902;28;20022;-74
2021/04/10 16:59:37;;;;;;;0.00;0.00;;;;;;;8.14;47.94;101602.41;10429733;28;20071;-74
2021/04/10 17:04:38;;;;;;;0.00;0.00;;;;;;;8.12;47.32;101603.47;10414674;28;20108;-74
2021/04/10 17:09:40;;;;;;;0.00;0.00;;;;;;;8.07;50.42;101592.38;10381969;28;20465;-74
2021/04/10 17:14:41;;;;;;;0.00;0.00;;;;;;;7.96;50.07;101595.91;10373846;28;20018;-75
2021/04/10 17:19:41;;;;;;;0.00;0.00;;;;;;;7.86;52.35;101587.84;10372614;28;20036;-74
2021/04/10 17:24:41;;;;;;;0.00;0.00;;;;;;;7.76;49.21;101589.53;10387881;28;20548;-75
2021/04/10 17:29:42;;;;;;;0.00;0.00;;;;;;;7.69;50.16;101593.66;10371542;28;20034;-75
2021/04/10 17:34:43;;;;;;;0.00;0.00;;;;;;;7.63;51.76;101594.97;10372609;28;20132;-73
2021/04/10 17:39:43;;;;;;;0.00;0.00;;;;;;;7.49;50.87;101584.63;10404268;28;20021;-74
2021/04/10 17:44:43;;;;;;;0.00;0.00;;;;;;;7.38;52.59;101577.50;10413293;28;20018;-74
2021/04/10 17:49:44;;;;;;;0.00;0.00;;;;;;;7.31;55.77;101586.91;10412183;28;20284;-74
2021/04/10 17:54:44;;;;;;;0.10;0.10;;;;;;;7.23;55.31;101582.19;10412217;28;20267;-74
2021/04/10 17:59:44;;;;;;;0.00;0.00;;;;;;;7.16;55.22;101578.34;10412420;28;20256;-73
2021/04/10 18:04:46;;;;;;;0.00;0.00;;;;;;;7.12;54.45;101576.88;10412259;28;20392;-74
2021/04/10 18:09:46;;;;;;;0.00;0.00;;;;;;;7.07;55.03;101588.78;10376907;28;20056;-74
2021/04/10 18:14:46;;;;;;;0.00;0.00;;;;;;;7.00;55.91;101591.91;10371258;28;20469;-74
2021/04/10 18:19:46;;;;;;;0.00;0.00;;;;;;;6.90;56.58;101588.28;10370143;28;20092;-73
2021/04/10 18:24:47;;;;;;;0.00;0.00;;;;;;;6.95;54.81;101594.06;10370806;28;20018;-74
2021/04/10 18:29:48;;;;;;;0.00;0.00;;;;;;;6.91;57.73;101599.72;10380055;28;20025;-74
2021/04/10 18:34:48;;;;;;;0.00;0.00;;;;;;;6.86;58.70;101599.22;10406880;28;20017;-73
2021/04/10 18:39:49;;;;;;;0.00;0.00;;;;;;;6.76;58.97;101586.66;10407194;28;20047;-74
2021/04/10 18:44:49;;;;;;;0.00;0.00;;;;;;;6.72;60.14;101597.59;10408169;28;20044;-74
2021/04/10 18:49:50;;;;;;;0.00;0.00;;;;;;;6.64;61.61;101600.84;10409914;28;20033;-73
2021/04/10 18:54:51;;;;;;;0.00;0.00;;;;;;;6.56;62.36;101593.44;10409815;28;20476;-74
2021/04/10 18:59:52;;;;;;;0.00;0.00;;;;;;;6.47;62.67;101593.31;10408397;28;20064;-74
2021/04/10 19:04:52;;;;;;;0.00;0.00;;;;;;;6.42;62.90;101595.44;10408749;28;20025;-75
2021/04/10 19:09:53;;;;;;;0.00;0.00;;;;;;;6.30;65.81;101589.25;10406526;28;20017;-74
2021/04/10 19:14:55;;;;;;;0.00;0.00;;;;;;;6.15;66.53;101588.56;10406265;28;20584;-74
2021/04/10 19:19:56;;;;;;;0.00;0.00;;;;;;;6.03;68.29;101584.19;10409287;28;20286;-74
2021/04/10 19:24:57;;;;;;;0.00;0.00;;;;;;;5.89;70.09;101585.13;10409127;28;20022;-74
2021/04/10 19:29:57;;;;;;;0.10;0.10;;;;;;;5.73;72.34;101577.47;10408959;28;20038;-74
2021/04/10 19:34:57;;;;;;;0.00;0.00;;;;;;;5.64;73.20;101575.47;10407136;28;20040;-75
2021/04/10 19:39:58;;;;;;;0.10;0.10;;;;;;;5.50;73.29;101573.81;10405466;28;20025;-75
2021/04/10 19:44:58;;;;;;;0.08;0.08;;;;;;;5.49;73.04;101565.97;10405858;28;20291;-76
2021/04/10 19:49:59;;;;;;;0.00;0.00;;;;;;;5.43;74.94;101559.31;10416649;28;20022;-76
2021/04/10 19:54:59;;;;;;;0.00;0.00;;;;;;;5.29;76.73;101551.53;10416870;28;20029;-77
2021/04/10 19:59:59;;;;;;;0.10;0.10;;;;;;;5.18;76.87;101555.78;10396247;28;20400;-77
2021/04/10 20:05:00;;;;;;;0.10;0.10;;;;;;;5.16;77.02;101551.53;10402456;28;20029;-77
2021/04/10 20:10:00;;;;;;;0.10;0.10;;;;;;;5.14;77.54;101548.16;10414239;28;20014;-77
2021/04/10 20:15:01;;;;;;;0.10;0.10;;;;;;;5.02;76.25;101551.66;10414290;28;20343;-76
2021/04/10 20:20:01;;;;;;;0.05;0.05;;;;;;;4.89;74.74;101552.50;10414260;28;20041;-76
2021/04/10 20:25:02;;;;;;;0.00;0.00;;;;;;;4.75;77.17;101534.09;10414362;28;20025;-76
2021/04/10 20:30:03;;;;;;;0.08;0.08;;;;;;;4.68;74.00;101536.31;10413744;28;20025;-76
2021/04/10 20:35:05;;;;;;;0.10;0.10;;;;;;;4.67;73.96;101523.22;10414258;28;20057;-76
2021/04/10 20:40:06;;;;;;;0.10;0.10;;;;;;;4.54;75.42;101523.22;10394218;28;20473;-76
2021/04/10 20:45:07;;;;;;;0.10;0.10;;;;;;;4.47;74.19;101509.56;10374298;28;20032;-76
2021/04/10 20:50:10;;;;;;;0.10;0.10;;;;;;;4.41;73.82;101520.53;10373273;28;20515;-76
2021/04/10 20:55:12;;;;;;;0.22;0.22;;;;;;;4.28;76.25;101503.84;10374318;28;20029;-76
2021/04/10 21:00:14;;;;;;;0.10;0.10;;;;;;;4.21;75.39;101499.91;10371210;28;20018;-76
2021/04/10 21:05:15;;;;;;;0.20;0.20;;;;;;;4.12;76.35;101485.53;10373558;28;20026;-76
2021/04/10 21:10:15;;;;;;;0.10;0.10;;;;;;;3.98;77.33;101489.06;10388929;28;20389;-75
2021/04/10 21:15:16;;;;;;;0.10;0.10;;;;;;;3.90;78.16;101491.41;10404634;28;20080;-76
2021/04/10 21:20:17;;;;;;;0.10;0.10;;;;;;;3.81;78.42;101484.94;10413384;28;20464;-75
2021/04/10 21:25:19;;;;;;;0.08;0.08;;;;;;;3.70;78.43;101476.03;10412978;28;20443;-75
2021/04/10 21:30:20;;;;;;;0.08;0.08;;;;;;;3.52;77.10;101472.75;10413912;28;20037;-76
2021/04/10 21:35:23;;;;;;;0.10;0.10;;;;;;;3.36;77.54;101470.25;10413527;28;20025;-73
2021/04/10 21:40:23;;;;;;;0.00;0.00;;;;;;;3.22;79.68;101471.13;10409360;28;20063;-76
2021/04/10 21:45:23;;;;;;;0.13;0.13;;;;;;;3.14;82.04;101476.88;10412677;28;20452;-75
2021/04/10 21:50:24;;;;;;;0.10;0.10;;;;;;;3.07;81.67;101461.56;10412654;28;20284;-73
2021/04/10 21:55:24;;;;;;;0.20;0.20;;;;;;;2.98;81.44;101438.44;10411610;28;20355;-75
2021/04/10 22:00:34;;;;;;;0.20;0.20;;;;;;;2.92;82.07;101432.63;10402494;28;20275;-75
2021/04/10 22:05:34;;;;;;;0.10;0.10;;;;;;;2.85;84.58;101423.41;10417931;28;20021;-74
2021/04/10 22:10:35;;;;;;;0.10;0.10;;;;;;;2.77;83.61;101416.94;10408275;28;20469;-74
2021/04/10 22:15:35;;;;;;;0.10;0.10;;;;;;;2.69;84.84;101409.50;10410325;28;20283;-73
2021/04/10 22:20:36;;;;;;;0.10;0.10;;;;;;;2.62;85.43;101389.78;10408311;28;20041;-74
2021/04/10 22:25:36;;;;;;;0.10;0.10;;;;;;;2.59;84.80;101395.22;10409803;28;20029;-74
2021/04/10 22:30:37;;;;;;;0.20;0.20;;;;;;;2.53;85.29;101380.69;10409073;28;20095;-74
2021/04/10 22:35:38;;;;;;;0.20;0.20;;;;;;;2.50;86.21;101370.31;10409969;28;20025;-74
2021/04/10 22:40:41;;;;;;;0.10;0.10;;;;;;;2.48;86.85;101356.44;10405827;28;20036;-74
2021/04/10 22:45:43;;;;;;;0.10;0.10;;;;;;;2.47;87.21;101352.09;10412614;28;20381;-72
2021/04/10 22:50:44;;;;;;;0.10;0.10;;;;;;;2.49;87.64;101345.81;10410683;28;20028;-74
2021/04/10 22:55:46;;;;;;;0.10;0.10;;;;;;;2.48;88.10;101322.25;10410317;28;20032;-74
2021/04/10 23:00:47;;;;;;;0.15;0.15;;;;;;;2.45;88.47;101309.31;10408617;28;20075;-73
2021/04/10 23:05:48;;;;;;;0.10;0.10;;;;;;;2.47;89.03;101292.50;10408912;28;20108;-72
2021/04/10 23:10:49;;;;;;;0.10;0.10;;;;;;;2.49;89.30;101311.63;10408855;28;20029;-73
2021/04/10 23:15:52;;;;;;;0.20;0.20;;;;;;;2.47;89.40;101287.22;10411895;28;20021;-73
2021/04/10 23:20:53;;;;;;;0.10;0.10;;;;;;;2.46;89.88;101269.75;10411531;28;20029;-73
2021/04/10 23:25:54;;;;;;;0.10;0.10;;;;;;;2.46;89.33;101246.09;10409724;28;20052;-72
2021/04/10 23:30:55;;;;;;;0.20;0.20;;;;;;;2.44;89.54;101247.13;10408618;28;20025;-72